createdAt,value
2023-08-09T06:23:04.673Z,100495.16
2023-08-09T06:26:07.341Z,100501.31
2023-08-09T06:29:10.393Z,100502.81
2023-08-09T06:32:13.061Z,100509.00
2023-08-09T06:35:15.530Z,100509.53
2023-08-09T06:38:18.132Z,100501.03
2023-08-09T06:41:20.482Z,100493.50
2023-08-09T06:44:23.091Z,100489.72
2023-08-09T06:47:25.430Z,100484.19
2023-08-09T06:50:28.715Z,100501.72
2023-08-09T06:53:31.237Z,100510.94
2023-08-09T06:56:34.080Z,100516.94
2023-08-09T06:59:36.379Z,100507.41
2023-08-09T07:02:39.002Z,100510.12
2023-08-09T07:05:45.042Z,100509.91
2023-08-09T07:08:47.864Z,100508.53
2023-08-09T07:11:50.191Z,100498.59
2023-08-09T07:14:53.913Z,100499.16
2023-08-09T07:17:56.256Z,100503.16
2023-08-09T07:20:59.084Z,100494.78
2023-08-09T07:24:01.298Z,100510.09
2023-08-09T07:27:04.505Z,100494.53
2023-08-09T07:30:07.421Z,100493.88
2023-08-09T07:33:10.010Z,100496.75
2023-08-09T07:36:12.366Z,100492.31
2023-08-09T07:39:14.906Z,100500.44
2023-08-09T07:42:17.688Z,100488.16
2023-08-09T07:45:21.816Z,100492.28
2023-08-09T07:48:25.828Z,100493.81
2023-08-09T07:51:28.660Z,100493.59
2023-08-09T07:54:30.932Z,100495.41
2023-08-09T07:57:34.383Z,100489.13
2023-08-09T08:00:49.580Z,100492.41
2023-08-09T08:03:53.094Z,100489.88
2023-08-09T08:06:56.576Z,100489.94
2023-08-09T08:09:59.566Z,100484.91
2023-08-09T08:13:02.093Z,100486.44
2023-08-09T08:16:05.528Z,100491.47
2023-08-09T08:19:09.643Z,100491.59
2023-08-09T08:22:12.386Z,100492.38
2023-08-09T08:25:15.686Z,100487.97
2023-08-09T08:28:18.291Z,100489.31
2023-08-09T08:31:21.463Z,100486.94
2023-08-09T08:34:24.148Z,100488.97
2023-08-09T08:37:27.280Z,100489.44
2023-08-09T08:40:32.420Z,100493.72
2023-08-09T08:43:35.939Z,100491.34
2023-08-09T08:46:39.662Z,100489.56
2023-08-09T08:49:49.682Z,100493.91
2023-08-09T08:52:53.063Z,100490.59
2023-08-09T08:55:56.730Z,100487.28
2023-08-09T08:59:00.324Z,100486.88
2023-08-09T09:02:03.977Z,100474.19
2023-08-09T09:05:10.252Z,100476.97
2023-08-09T09:08:14.453Z,100484.94
2023-08-09T09:11:19.622Z,100475.72
2023-08-09T09:14:22.628Z,100473.53
2023-08-09T09:17:26.902Z,100466.84
2023-08-09T09:20:31.271Z,100470.25
2023-08-09T09:23:34.602Z,100480.53
2023-08-09T09:26:40.768Z,100472.84
2023-08-09T09:29:43.291Z,100470.66
2023-08-09T09:32:59.861Z,100471.37
2023-08-09T09:36:04.158Z,100469.72
2023-08-09T09:39:21.363Z,100476.38
2023-08-09T09:42:35.229Z,100474.44
2023-08-09T09:45:38.619Z,100467.56
2023-08-09T09:48:46.462Z,100470.25
2023-08-09T09:51:50.508Z,100464.81
2023-08-09T09:54:56.605Z,100469.91
2023-08-09T09:57:59.563Z,100459.09
2023-08-09T10:01:04.785Z,100463.53
2023-08-09T10:04:08.439Z,100460.50
2023-08-09T10:07:12.177Z,100461.41
2023-08-09T10:10:17.555Z,100455.59
2023-08-09T10:13:22.725Z,100446.06
2023-08-09T10:16:27.445Z,100449.78
2023-08-09T10:19:30.710Z,100445.34
2023-08-09T10:22:36.982Z,100441.50
2023-08-09T10:25:49.231Z,100435.06
2023-08-09T10:28:51.769Z,100437.75
2023-08-09T10:32:06.417Z,100434.63
2023-08-09T10:35:16.582Z,100438.31
2023-08-09T10:38:48.173Z,100435.72
2023-08-09T10:42:01.730Z,100430.81
2023-08-09T10:45:05.952Z,100433.41
2023-08-09T10:48:23.494Z,100427.75
2023-08-09T10:51:26.056Z,100436.69
2023-08-09T10:54:28.712Z,100435.50
2023-08-09T10:57:42.247Z,100441.03
2023-08-09T11:00:47.935Z,100435.41
2023-08-09T11:03:50.667Z,100434.97
2023-08-09T11:06:53.208Z,100436.59
2023-08-09T11:09:55.864Z,100433.03
2023-08-09T11:12:58.466Z,100430.84
2023-08-09T11:16:07.970Z,100428.62
2023-08-09T11:19:32.438Z,100427.00
2023-08-09T11:22:37.610Z,100426.53
2023-08-09T11:25:40.540Z,100422.19
2023-08-09T11:28:42.882Z,100419.94
2023-08-09T11:31:47.593Z,100417.09
2023-08-09T11:34:50.109Z,100422.56
2023-08-09T11:37:53.613Z,100429.66
2023-08-09T11:40:55.944Z,100423.91
2023-08-09T11:43:58.452Z,100429.66
2023-08-09T11:47:03.853Z,100420.88
2023-08-09T11:50:26.094Z,100420.00
2023-08-09T11:53:28.400Z,100420.72
2023-08-09T11:56:36.643Z,100410.97
2023-08-09T11:59:40.613Z,100415.19
2023-08-09T12:02:46.410Z,100418.09
2023-08-09T12:05:56.066Z,100414.62
2023-08-09T12:08:59.208Z,100420.00
2023-08-09T12:12:06.422Z,100418.66
2023-08-09T12:15:10.465Z,100416.06
2023-08-09T12:18:12.986Z,100417.03
2023-08-09T12:21:15.228Z,100418.09
2023-08-09T12:24:17.768Z,100421.03
2023-08-09T12:27:22.930Z,100419.50
2023-08-09T12:30:25.578Z,100418.03
2023-08-09T12:33:28.470Z,100416.87
2023-08-09T12:36:31.871Z,100420.41
2023-08-09T12:39:35.843Z,100419.34
2023-08-09T12:42:38.419Z,100423.50
2023-08-09T12:45:41.974Z,100413.72
2023-08-09T12:48:44.582Z,100416.59
2023-08-09T12:51:47.213Z,100413.00
2023-08-09T12:54:50.599Z,100411.97
2023-08-09T12:57:52.863Z,100408.19
2023-08-09T13:00:56.127Z,100411.56
2023-08-09T13:03:58.479Z,100405.91
2023-08-09T13:07:01.332Z,100401.81
2023-08-09T13:10:03.908Z,100409.09
2023-08-09T13:13:06.437Z,100401.59
2023-08-09T13:16:09.325Z,100391.44
2023-08-09T13:19:12.100Z,100389.69
2023-08-09T13:22:14.673Z,100388.38
2023-08-09T13:25:17.578Z,100390.06
2023-08-09T13:28:20.001Z,100380.53
2023-08-09T13:31:22.763Z,100382.94
2023-08-09T13:34:25.023Z,100384.19
2023-08-09T13:37:30.227Z,100383.22
2023-08-09T13:40:33.435Z,100374.28
2023-08-09T13:43:36.913Z,100381.91
2023-08-09T13:46:39.376Z,100381.59
2023-08-09T13:49:42.187Z,100380.19
2023-08-09T13:52:44.701Z,100380.03
2023-08-09T13:55:47.652Z,100376.13
2023-08-09T13:58:49.982Z,100370.34
2023-08-09T14:01:53.716Z,100372.37
2023-08-09T14:04:56.637Z,100375.84
2023-08-09T14:07:59.419Z,100365.41
2023-08-09T14:11:02.825Z,100367.31
2023-08-09T14:14:05.107Z,100356.19
2023-08-09T14:17:07.587Z,100341.03
2023-08-09T14:20:20.748Z,100342.16
2023-08-09T14:23:23.560Z,100346.13
2023-08-09T14:26:26.148Z,100349.34
2023-08-09T14:29:29.361Z,100341.47
2023-08-09T14:32:31.703Z,100346.41
2023-08-09T14:35:34.277Z,100349.53
2023-08-09T14:38:36.586Z,100349.41
2023-08-09T14:41:39.250Z,100346.81
2023-08-09T14:44:41.543Z,100363.94
2023-08-09T14:47:44.401Z,100364.56
2023-08-09T14:50:46.976Z,100368.47
2023-08-09T14:53:49.517Z,100366.22
2023-08-09T14:56:51.781Z,100366.84
2023-08-09T14:59:54.300Z,100361.97
2023-08-09T15:02:56.781Z,100363.16
2023-08-09T15:05:59.356Z,100362.03
2023-08-09T15:09:01.575Z,100353.84
2023-08-09T15:12:06.214Z,100360.97
2023-08-09T15:15:08.724Z,100358.72
2023-08-09T15:18:11.297Z,100361.19
2023-08-09T15:21:13.589Z,100362.00
2023-08-09T15:24:16.188Z,100369.37
2023-08-09T15:27:20.222Z,100361.88
2023-08-09T15:30:25.212Z,100355.44
2023-08-09T15:33:27.577Z,100358.50
2023-08-09T15:36:30.115Z,100355.91
2023-08-09T15:39:34.234Z,100353.38
2023-08-09T15:42:37.549Z,100358.34
2023-08-09T15:45:40.172Z,100357.66
2023-08-09T15:48:42.813Z,100364.94
2023-08-09T15:51:45.066Z,100368.34
2023-08-09T15:54:47.971Z,100365.87
2023-08-09T15:57:50.916Z,100367.66
2023-08-09T16:00:55.731Z,100370.97
2023-08-09T16:03:59.918Z,100358.19
2023-08-09T16:07:02.328Z,100364.22
2023-08-09T16:10:07.480Z,100365.87
2023-08-09T16:13:09.777Z,100358.66
2023-08-09T16:16:24.113Z,100367.81
2023-08-09T16:19:30.898Z,100368.94
2023-08-09T16:22:33.600Z,100361.44
2023-08-09T16:25:35.978Z,100364.00
2023-08-09T16:28:38.517Z,100366.69
2023-08-09T16:31:40.857Z,100361.75
2023-08-09T16:34:43.652Z,100361.63
2023-08-09T16:37:45.864Z,100357.00
2023-08-09T16:40:48.377Z,100363.44
2023-08-09T16:43:53.115Z,100366.37
2023-08-09T16:46:59.639Z,100361.00
2023-08-09T16:50:01.931Z,100368.16
2023-08-09T16:53:05.411Z,100370.09
2023-08-09T16:56:07.709Z,100372.16
2023-08-09T16:59:10.362Z,100367.03
2023-08-09T17:02:13.398Z,100370.91
2023-08-09T17:05:19.898Z,100362.28
2023-08-09T17:08:22.198Z,100377.53
2023-08-09T17:11:24.732Z,100369.72
2023-08-09T17:14:27.005Z,100365.59
2023-08-09T17:17:30.977Z,100372.47
2023-08-09T17:20:34.906Z,100374.47
2023-08-09T17:23:39.990Z,100382.19
2023-08-09T17:26:44.098Z,100385.16
2023-08-09T17:29:46.817Z,100387.88
2023-08-09T17:32:50.415Z,100378.81
2023-08-09T17:35:52.964Z,100386.69
2023-08-09T17:38:56.265Z,100390.38
2023-08-09T17:41:58.842Z,100387.34
2023-08-09T17:45:04.590Z,100394.03
2023-08-09T17:48:07.923Z,100399.72
2023-08-09T17:51:10.288Z,100402.56
2023-08-09T17:54:12.894Z,100411.72
2023-08-09T17:57:15.166Z,100414.41
2023-08-09T18:00:20.911Z,100411.72
2023-08-09T18:03:24.835Z,100416.56
2023-08-09T18:06:27.283Z,100423.72
2023-08-09T18:09:29.880Z,100422.56
2023-08-09T18:12:32.127Z,100423.56
2023-08-09T18:15:34.714Z,100432.47
2023-08-09T18:18:36.926Z,100439.28
2023-08-09T18:21:39.578Z,100443.94
2023-08-09T18:24:41.815Z,100440.09
2023-08-09T18:27:44.324Z,100436.56
2023-08-09T18:30:46.823Z,100438.41
2023-08-09T18:33:50.774Z,100444.06
2023-08-09T18:36:53.626Z,100444.16
2023-08-09T18:39:56.131Z,100453.53
2023-08-09T18:42:58.861Z,100442.56
2023-08-09T18:46:03.435Z,100449.03
2023-08-09T18:49:05.778Z,100447.09
2023-08-09T18:52:08.340Z,100447.16
2023-08-09T18:55:11.095Z,100453.81
2023-08-09T18:58:14.029Z,100453.75
2023-08-09T19:01:16.383Z,100460.25
2023-08-09T19:04:19.688Z,100456.72
2023-08-09T19:07:21.864Z,100460.75
2023-08-09T19:10:24.661Z,100471.53
2023-08-09T19:13:26.847Z,100472.16
2023-08-09T19:16:29.463Z,100476.47
2023-08-09T19:19:31.658Z,100481.03
2023-08-09T19:22:35.124Z,100485.66
2023-08-09T19:25:37.494Z,100484.34
2023-08-09T19:28:40.672Z,100480.16
2023-08-09T19:31:43.388Z,100482.94
2023-08-09T19:34:47.097Z,100488.13
2023-08-09T19:37:49.731Z,100490.44
2023-08-09T19:40:52.288Z,100487.63
2023-08-09T19:43:56.183Z,100499.94
2023-08-09T19:47:02.316Z,100503.62
2023-08-09T19:50:08.888Z,100493.22
2023-08-09T19:53:11.452Z,100501.94
2023-08-09T19:56:13.850Z,100507.78
2023-08-09T19:59:16.361Z,100501.91
2023-08-09T20:02:19.556Z,100502.06
2023-08-09T20:05:22.330Z,100501.87
2023-08-09T20:08:24.550Z,100498.50
2023-08-09T20:11:27.084Z,100504.03
2023-08-09T20:14:29.351Z,100502.59
2023-08-09T20:17:32.619Z,100501.78
2023-08-09T20:20:38.178Z,100497.97
2023-08-09T20:23:40.705Z,100497.03
2023-08-09T20:26:42.907Z,100506.59
2023-08-09T20:29:45.450Z,100505.88
2023-08-09T20:32:47.840Z,100499.00
2023-08-09T20:35:50.537Z,100499.22
2023-08-09T20:38:53.432Z,100506.62
2023-08-09T20:41:55.993Z,100505.31
2023-08-09T20:44:58.285Z,100502.59
2023-08-09T20:48:00.850Z,100500.41
2023-08-09T20:51:03.249Z,100498.19
2023-08-09T20:54:06.314Z,100494.59
2023-08-09T20:57:08.624Z,100503.41
2023-08-09T21:00:14.849Z,100513.22
2023-08-09T21:03:17.150Z,100508.84
2023-08-09T21:06:21.261Z,100510.06
2023-08-09T21:09:23.833Z,100513.75
2023-08-09T21:12:26.332Z,100519.16
2023-08-09T21:15:29.820Z,100518.16
2023-08-09T21:18:36.239Z,100520.41
2023-08-09T21:21:39.001Z,100520.47
2023-08-09T21:24:41.929Z,100519.63
2023-08-09T21:27:44.266Z,100520.22
2023-08-09T21:30:47.413Z,100522.91
2023-08-09T21:33:49.626Z,100526.19
2023-08-09T21:36:52.095Z,100527.12
2023-08-09T21:39:54.287Z,100522.50
2023-08-09T21:42:56.749Z,100524.91
2023-08-09T21:45:59.097Z,100522.72
2023-08-09T21:49:01.712Z,100522.56
2023-08-09T21:52:05.067Z,100521.63
2023-08-09T21:55:08.145Z,100526.56
2023-08-09T21:58:10.812Z,100534.59
2023-08-09T22:01:13.399Z,100525.91
2023-08-09T22:04:16.027Z,100536.06
2023-08-09T22:07:18.401Z,100539.47
2023-08-09T22:10:21.059Z,100535.03
2023-08-09T22:13:24.476Z,100540.88
2023-08-09T22:16:27.588Z,100543.69
2023-08-09T22:19:29.912Z,100539.97
2023-08-09T22:22:33.154Z,100549.06
2023-08-09T22:25:35.603Z,100549.25
2023-08-09T22:28:38.534Z,100551.09
2023-08-09T22:31:41.197Z,100545.97
2023-08-09T22:34:43.940Z,100546.91
2023-08-09T22:37:46.289Z,100541.91
2023-08-09T22:40:48.910Z,100551.88
2023-08-09T22:43:51.647Z,100551.41
2023-08-09T22:46:55.610Z,100548.94
2023-08-09T22:50:00.666Z,100548.44
2023-08-09T22:53:03.295Z,100547.44
2023-08-09T22:56:05.816Z,100553.62
2023-08-09T22:59:08.381Z,100539.94
2023-08-09T23:02:10.733Z,100544.06
2023-08-09T23:05:13.521Z,100543.53
2023-08-09T23:08:16.049Z,100543.69
2023-08-09T23:11:18.695Z,100540.41
2023-08-09T23:14:21.030Z,100541.25
2023-08-09T23:17:25.896Z,100543.28
2023-08-09T23:20:28.874Z,100543.13
2023-08-09T23:23:32.031Z,100536.75
2023-08-09T23:26:34.395Z,100527.00
2023-08-09T23:29:36.967Z,100536.31
2023-08-09T23:32:39.468Z,100528.34
2023-08-09T23:35:42.011Z,100539.78
2023-08-09T23:38:44.677Z,100539.31
2023-08-09T23:41:47.230Z,100537.56
2023-08-09T23:44:49.661Z,100540.34
2023-08-09T23:47:53.258Z,100542.88
2023-08-09T23:50:55.592Z,100528.63
2023-08-09T23:54:01.641Z,100532.91
2023-08-09T23:57:04.078Z,100532.63
